Nearby METAR Reports

 

EGSS - Stansted Airport, United Kingdom
Distance from station: NW 15mi, 24km
Updated: 16/11/2019 23:20
Clear
Clear
 Wind from S
Wind: S 5 mph , 7 km/h
Temperature: 4°C
Wind Chill: 2°C
Dew Point: 3°C
Humidity: 93%
Barometer: 1008 hPa
Clouds: Clear
Visibility: 6 miles , 10 km
2019/11/16 23:20 EGSS 162320Z AUTO 18004KT 9999 NCD 04/03 Q1008
EGMC - Southend-On-Sea, United Kingdom
Distance from station: SE 15mi, 25km
Updated: 16/11/2019 23:20
Partly cloudy
Partly cloudy
 Wind from calm
Wind: Calm
Temperature: 4°C
Dew Point: 4°C
Humidity: 100%
Barometer: 1009 hPa
Clouds: Partly cloudy
Visibility: 6 miles , 10 km
Cloud details: Partly cloudy 1433 m
2019/11/16 23:20 EGMC 162320Z 00000KT 9999 SCT047 04/04 Q1009
 
EGLC - London City Airp, United Kingdom
Distance from station: SW 24mi, 39km
Updated: 16/11/2019 23:20
Mostly cloudy
Mostly cloudy
 Wind from varies
Wind: varies 2 mph , 4 km/h
Temperature: 6°C
Dew Point: 4°C
Humidity: 87%
Barometer: 1009 hPa
Clouds: Mostly cloudy
Visibility: 6 miles , 10 km
Cloud details: Mostly cloudy 1402 m
2019/11/16 23:20 EGLC 162320Z AUTO VRB02KT 9999 BKN046 06/04 Q1009
EGUW - Wattisham Raf, United Kingdom
Distance from station: NE 34mi, 54km
Updated: 16/11/2019 22:50
Mist, Overcast
Mist, Overcast
 Wind from SW
Wind: SW 3 mph , 6 km/h
Temperature: 3°C
Dew Point: 2°C
Humidity: 93%
Barometer: 1008 hPa
Summary: Mist
Clouds: Overcast
Visibility: 6 miles , 9 km
Cloud details: Overcast 4267 m
2019/11/16 22:50 EGUW 162250Z AUTO 23003KT 9000 BR OVC140/// 03/02 Q1008
 
EGGW - Luton Airport, United Kingdom
Distance from station: WNW 37mi, 59km
Updated: 16/11/2019 23:20
Partly cloudy
Partly cloudy
 Wind from S
Wind: S 5 mph , 7 km/h
Temperature: 3°C
Wind Chill: 1°C
Dew Point: 2°C
Humidity: 93%
Barometer: 1008 hPa
Clouds: Partly cloudy
Visibility: 6 miles , 10 km
Cloud details: Partly cloudy 1250 m
2019/11/16 23:20 EGGW 162320Z AUTO 19004KT 9999 SCT041 03/02 Q1008
EGWU - Northolt Raf, United Kingdom
Distance from station: WSW 40mi, 64km
Updated: 16/11/2019 22:50
Mist, Mostly cloudy
Mist, Mostly cloudy
 Wind from NNW
Wind: NNW 1 mph , 2 km/h
Temperature: 3°C
Dew Point: 2°C
Humidity: 93%
Barometer: 1008 hPa
Summary: Mist
Clouds: Mostly cloudy
Visibility: 3 miles , 5 km
Cloud details: Mostly cloudy 4877 m
2019/11/16 22:50 EGWU 162250Z 34001KT 5000 BR BKN160 03/02 Q1008 WHT